Time;durP1;ratioP1;P1;durP2;ratioP2;P2;SDS_P1;SDS_P2;PMS_P1;PMS_P2;Temp;Humidity;BMP_temperature;BMP_pressure;BME280_temperature;BME280_humidity;BME280_pressure;Samples;Min_cycle;Max_cycle;Signal;HPM_P1;HPM_P2
2022/02/16 00:01:09;;;;;;;6.82;4.40;;;9.20;99.90;;;;;;5021009;28;20088;-37
2022/02/16 00:03:34;;;;;;;5.97;4.20;;;9.20;99.90;;;;;;5021099;28;20505;-37
2022/02/16 00:06:00;;;;;;;4.32;3.60;;;9.10;99.90;;;;;;5025838;28;20029;-39
2022/02/16 00:08:26;;;;;;;3.35;2.95;;;9.10;99.90;;;;;;5024177;28;20025;-38
2022/02/16 00:10:51;;;;;;;5.63;3.45;;;9.10;99.90;;;;;;5026290;28;20064;-39
2022/02/16 00:13:17;;;;;;;4.78;3.88;;;9.20;99.90;;;;;;5028623;28;20030;-39
2022/02/16 00:15:43;;;;;;;4.47;3.83;;;9.20;99.90;;;;;;5034176;28;20057;-38
2022/02/16 00:18:09;;;;;;;4.13;3.55;;;9.20;99.90;;;;;;5034130;28;20025;-37
2022/02/16 00:20:35;;;;;;;8.25;3.75;;;9.20;99.90;;;;;;5024281;28;20022;-38
2022/02/16 00:23:01;;;;;;;5.30;3.78;;;9.20;99.90;;;;;;5016931;28;20053;-38
2022/02/16 00:25:27;;;;;;;5.80;4.22;;;9.20;99.90;;;;;;5028636;28;20417;-39
2022/02/16 00:27:54;;;;;;;6.38;4.70;;;9.20;99.90;;;;;;5031813;28;20109;-37
2022/02/16 00:30:20;;;;;;;7.30;5.50;;;9.20;99.90;;;;;;5022291;28;20033;-38
2022/02/16 00:32:45;;;;;;;8.57;5.00;;;9.20;99.90;;;;;;5035886;28;20025;-37
2022/02/16 00:35:11;;;;;;;9.48;5.13;;;9.20;99.90;;;;;;5035919;28;20062;-38
2022/02/16 00:37:37;;;;;;;12.20;5.53;;;9.20;99.90;;;;;;5022527;28;20084;-68
2022/02/16 00:40:03;;;;;;;9.20;6.20;;;9.10;99.90;;;;;;5029923;28;20018;-61
2022/02/16 00:42:29;;;;;;;6.90;5.13;;;9.10;99.90;;;;;;5024637;28;20048;-37
2022/02/16 00:44:55;;;;;;;7.25;5.30;;;9.20;99.90;;;;;;5025785;28;20037;-38
2022/02/16 00:47:20;;;;;;;7.95;5.25;;;9.10;99.90;;;;;;5021748;28;20424;-37
2022/02/16 00:49:46;;;;;;;7.07;4.93;;;9.10;99.90;;;;;;5036000;28;20033;-43
2022/02/16 00:52:12;;;;;;;7.05;5.30;;;9.10;99.90;;;;;;5034392;28;20029;-39
2022/02/16 00:54:39;;;;;;;8.40;5.68;;;9.10;99.90;;;;;;5023337;28;20470;-38
2022/02/16 00:57:05;;;;;;;8.70;5.78;;;9.10;99.90;;;;;;5035221;28;20076;-37
2022/02/16 00:59:31;;;;;;;7.93;5.40;;;9.10;99.90;;;;;;5035330;28;20025;-38
2022/02/16 01:01:57;;;;;;;7.70;5.93;;;9.10;99.90;;;;;;5027358;28;20515;-37
2022/02/16 01:04:24;;;;;;;9.77;5.28;;;9.10;99.90;;;;;;5032185;28;20494;-40
2022/02/16 01:06:52;;;;;;;9.00;5.57;;;9.10;99.90;;;;;;5035337;28;20021;-38
2022/02/16 01:09:18;;;;;;;9.93;6.22;;;9.10;99.90;;;;;;5034642;28;20044;-39
2022/02/16 01:11:44;;;;;;;8.02;5.97;;;9.10;99.90;;;;;;5034109;28;20017;-41
2022/02/16 01:14:09;;;;;;;9.85;5.43;;;9.10;99.90;;;;;;5035892;28;20028;-39
2022/02/16 01:16:36;;;;;;;8.55;5.00;;;9.10;99.90;;;;;;5035457;28;20052;-38
2022/02/16 01:19:05;;;;;;;9.80;4.55;;;9.10;99.90;;;;;;5033603;28;20032;-39
2022/02/16 01:21:31;;;;;;;7.40;4.55;;;9.00;99.90;;;;;;5035005;28;20018;-38
2022/02/16 01:23:56;;;;;;;8.02;4.68;;;9.00;99.90;;;;;;5034834;28;20052;-38
2022/02/16 01:26:23;;;;;;;5.07;3.95;;;9.00;99.90;;;;;;5034333;28;20037;-57
2022/02/16 01:28:49;;;;;;;5.60;4.13;;;9.00;99.90;;;;;;5034640;28;20025;-39
2022/02/16 01:31:15;;;;;;;8.90;4.25;;;9.00;99.90;;;;;;5031918;28;20026;-39
2022/02/16 01:33:41;;;;;;;7.82;3.70;;;9.00;99.90;;;;;;5034588;28;20022;-37
2022/02/16 01:36:07;;;;;;;5.97;4.20;;;9.00;99.90;;;;;;5023342;28;20028;-41
2022/02/16 01:38:33;;;;;;;4.50;3.40;;;9.10;99.90;;;;;;5020202;28;20026;-42
2022/02/16 01:40:59;;;;;;;5.03;3.55;;;9.10;99.90;;;;;;5025302;28;20029;-38
2022/02/16 01:43:24;;;;;;;6.88;3.72;;;9.00;99.90;;;;;;5034262;28;20021;-40
2022/02/16 01:45:50;;;;;;;4.63;3.33;;;9.10;99.90;;;;;;5029222;28;20067;-38
2022/02/16 01:48:16;;;;;;;4.32;3.42;;;9.10;99.90;;;;;;5033808;28;20108;-37
2022/02/16 01:50:41;;;;;;;8.20;3.75;;;9.00;99.90;;;;;;5022384;28;20048;-40
2022/02/16 01:53:07;;;;;;;3.55;3.10;;;9.00;99.90;;;;;;5025242;28;20112;-39
2022/02/16 01:55:34;;;;;;;6.00;3.65;;;9.10;99.90;;;;;;5016193;28;20109;-39
2022/02/16 01:58:02;;;;;;;4.10;3.05;;;9.00;99.90;;;;;;5015627;28;20029;-40
2022/02/16 02:00:28;;;;;;;9.45;3.63;;;9.10;99.90;;;;;;5029214;28;20025;-41
2022/02/16 02:02:53;;;;;;;7.10;3.67;;;9.00;99.90;;;;;;5020541;28;20026;-40
2022/02/16 02:05:19;;;;;;;9.15;4.28;;;9.00;99.90;;;;;;5001502;28;20033;-40
2022/02/16 02:07:44;;;;;;;10.73;3.63;;;9.00;99.90;;;;;;5027963;28;20049;-38
2022/02/16 02:10:10;;;;;;;5.50;3.25;;;9.00;99.90;;;;;;5023330;28;20022;-48
2022/02/16 02:12:47;;;;;;;6.18;4.20;;;9.00;99.90;;;;;;5017362;28;20044;-40
2022/02/16 02:15:13;;;;;;;6.30;3.95;;;9.10;99.90;;;;;;5018030;28;20109;-39
2022/02/16 02:17:39;;;;;;;6.82;4.00;;;9.10;99.90;;;;;;5024525;28;20101;-39
2022/02/16 02:20:17;;;;;;;7.47;4.57;;;9.10;99.90;;;;;;5032065;28;20378;-38
2022/02/16 02:22:42;;;;;;;7.32;4.53;;;9.10;99.90;;;;;;5032259;28;20054;-39
2022/02/16 02:25:08;;;;;;;5.68;4.03;;;9.10;99.90;;;;;;5034293;28;20021;-39
2022/02/16 02:27:33;;;;;;;6.88;4.95;;;9.10;99.90;;;;;;5032580;28;20026;-40
2022/02/16 02:29:59;;;;;;;12.55;4.88;;;9.10;99.90;;;;;;5033916;28;20021;-39
2022/02/16 02:32:25;;;;;;;6.93;4.55;;;9.10;99.90;;;;;;5033732;28;20033;-40
2022/02/16 02:34:52;;;;;;;6.95;4.65;;;9.10;99.90;;;;;;5025868;28;20022;-39
2022/02/16 02:37:18;;;;;;;11.82;6.35;;;9.20;99.90;;;;;;5014376;28;20101;-60
2022/02/16 02:39:43;;;;;;;15.07;6.53;;;9.20;99.90;;;;;;5025269;28;20220;-39
2022/02/16 02:42:09;;;;;;;10.07;6.15;;;9.20;99.90;;;;;;5021728;28;20022;-40
2022/02/16 02:44:35;;;;;;;14.80;8.35;;;9.10;99.90;;;;;;5017961;28;20025;-39
2022/02/16 02:47:01;;;;;;;15.75;7.78;;;9.10;99.90;;;;;;5029512;28;20112;-40
2022/02/16 02:49:27;;;;;;;13.35;8.43;;;9.20;99.90;;;;;;5031132;28;20036;-38
2022/02/16 02:51:53;;;;;;;16.65;7.88;;;9.20;99.90;;;;;;5014229;28;20030;-40
2022/02/16 02:54:18;;;;;;;16.30;7.40;;;9.20;99.90;;;;;;5012683;28;20396;-41
2022/02/16 02:56:44;;;;;;;14.65;7.72;;;9.30;99.90;;;;;;5022946;28;20021;-36
2022/02/16 02:59:10;;;;;;;15.80;8.35;;;9.20;99.90;;;;;;5033940;28;20152;-53
2022/02/16 03:01:38;;;;;;;13.88;8.18;;;9.20;99.90;;;;;;5032090;28;20033;-40
2022/02/16 03:04:03;;;;;;;16.65;8.20;;;9.20;99.90;;;;;;5033646;28;20025;-39
2022/02/16 03:06:29;;;;;;;14.77;8.27;;;9.20;99.90;;;;;;5018343;28;20025;-38
2022/02/16 03:08:55;;;;;;;12.35;7.68;;;9.20;99.90;;;;;;5015324;28;20091;-38
2022/02/16 03:11:20;;;;;;;19.50;7.32;;;9.20;99.90;;;;;;5017313;28;20082;-38
2022/02/16 03:13:49;;;;;;;14.73;7.75;;;9.20;99.90;;;;;;5015480;28;20018;-39
2022/02/16 03:16:15;;;;;;;14.82;7.53;;;9.20;99.90;;;;;;5019312;28;20036;-38
2022/02/16 03:18:40;;;;;;;14.15;7.82;;;9.20;99.90;;;;;;5020028;28;20014;-38
2022/02/16 03:21:06;;;;;;;14.80;7.70;;;9.20;99.90;;;;;;5015485;28;20022;-39
2022/02/16 03:23:32;;;;;;;13.90;7.57;;;9.10;99.90;;;;;;5023364;28;20053;-39
2022/02/16 03:25:57;;;;;;;12.05;7.68;;;9.10;99.90;;;;;;5021980;28;20030;-38
2022/02/16 03:28:23;;;;;;;11.15;7.07;;;9.10;99.90;;;;;;5024324;28;20025;-38
2022/02/16 03:30:49;;;;;;;17.33;6.50;;;9.20;99.90;;;;;;5013289;28;20066;-68
2022/02/16 03:33:14;;;;;;;11.77;6.40;;;9.10;99.90;;;;;;5028925;28;20561;-39
2022/02/16 03:35:40;;;;;;;7.75;5.60;;;9.10;99.90;;;;;;5032485;28;20021;-38
2022/02/16 03:38:06;;;;;;;12.10;7.80;;;9.10;99.90;;;;;;5031164;28;20018;-38
2022/02/16 03:40:31;;;;;;;11.73;5.93;;;9.20;99.90;;;;;;5032597;28;20064;-39
2022/02/16 03:42:57;;;;;;;9.95;6.00;;;9.20;99.90;;;;;;5018211;28;20026;-42
2022/02/16 03:45:24;;;;;;;8.25;5.68;;;9.20;99.90;;;;;;5029986;28;20026;-38
2022/02/16 03:47:51;;;;;;;8.80;5.50;;;9.20;99.90;;;;;;5032409;28;20041;-39
2022/02/16 03:50:17;;;;;;;9.95;5.43;;;9.20;99.90;;;;;;5032328;28;20527;-38
2022/02/16 03:52:43;;;;;;;8.00;5.72;;;9.20;99.90;;;;;;5032835;28;20524;-38
2022/02/16 03:55:09;;;;;;;7.10;5.20;;;9.20;99.90;;;;;;5032427;28;20029;-38
2022/02/16 03:57:35;;;;;;;9.93;4.90;;;9.20;99.90;;;;;;5028746;28;20041;-37
2022/02/16 04:00:01;;;;;;;5.97;4.70;;;9.20;99.90;;;;;;5018737;28;20402;-38
2022/02/16 04:02:27;;;;;;;5.57;4.60;;;9.20;99.90;;;;;;5030840;28;20224;-40
2022/02/16 04:04:52;;;;;;;8.95;4.55;;;9.20;99.90;;;;;;5031219;28;20585;-38
2022/02/16 04:07:18;;;;;;;6.53;4.65;;;9.20;99.90;;;;;;5021961;28;20034;-38
2022/02/16 04:09:43;;;;;;;8.13;3.90;;;9.30;99.90;;;;;;5031042;28;20394;-38
2022/02/16 04:12:09;;;;;;;8.02;4.10;;;9.30;99.90;;;;;;5020841;28;20026;-39
2022/02/16 04:14:35;;;;;;;5.60;3.85;;;9.30;99.90;;;;;;5027908;28;20109;-37
2022/02/16 04:17:00;;;;;;;7.35;3.92;;;9.30;99.90;;;;;;5032268;28;20101;-37
2022/02/16 04:19:26;;;;;;;3.95;3.53;;;9.30;99.90;;;;;;5030846;28;20446;-38
2022/02/16 04:21:51;;;;;;;5.35;3.58;;;9.20;99.90;;;;;;5018391;28;20022;-37
2022/02/16 04:24:17;;;;;;;3.92;3.53;;;9.20;99.90;;;;;;5021511;28;20061;-45
2022/02/16 04:26:44;;;;;;;3.50;3.15;;;9.20;99.90;;;;;;5027206;28;20798;-51
2022/02/16 04:29:09;;;;;;;5.28;3.63;;;9.20;99.90;;;;;;5026391;28;20092;-38
2022/02/16 04:31:35;;;;;;;6.88;4.05;;;9.20;99.90;;;;;;5033349;28;20445;-39
2022/02/16 04:34:00;;;;;;;6.90;4.45;;;9.20;99.90;;;;;;5025997;28;20025;-39
2022/02/16 04:36:26;;;;;;;9.20;5.25;;;9.20;99.90;;;;;;5027025;28;20029;-38
2022/02/16 04:38:58;;;;;;;6.32;4.70;;;9.20;99.90;;;;;;5025827;28;20018;-37
2022/02/16 04:41:24;;;;;;;6.85;5.22;;;9.20;99.90;;;;;;5030423;28;20136;-44
2022/02/16 04:43:50;;;;;;;8.60;5.68;;;9.20;99.90;;;;;;5031906;28;20410;-38
2022/02/16 04:46:16;;;;;;;9.18;5.65;;;9.20;99.90;;;;;;5027103;28;20032;-37
2022/02/16 04:48:42;;;;;;;8.98;6.25;;;9.20;99.90;;;;;;5020572;28;20026;-39
2022/02/16 04:51:08;;;;;;;8.82;6.05;;;9.20;99.90;;;;;;5013417;28;20505;-38
2022/02/16 04:53:34;;;;;;;12.30;7.28;;;9.20;99.90;;;;;;5026925;28;20029;-39
2022/02/16 04:56:04;;;;;;;10.30;7.25;;;9.20;99.90;;;;;;5019678;28;20513;-38
2022/02/16 04:58:30;;;;;;;11.23;7.15;;;9.20;99.90;;;;;;5021709;28;20030;-39
2022/02/16 05:00:56;;;;;;;12.77;7.15;;;9.20;99.90;;;;;;5029556;28;20025;-44
2022/02/16 05:03:23;;;;;;;11.82;7.93;;;9.20;99.90;;;;;;5031566;28;20041;-37
2022/02/16 05:05:48;;;;;;;8.98;6.38;;;9.20;99.90;;;;;;5027429;28;20411;-37
2022/02/16 05:08:14;;;;;;;10.95;6.93;;;9.30;99.90;;;;;;5031274;28;20030;-39
2022/02/16 05:10:39;;;;;;;9.35;6.40;;;9.30;99.90;;;;;;5016130;28;20076;-38
2022/02/16 05:13:08;;;;;;;9.45;6.75;;;9.30;99.90;;;;;;5027913;28;20079;-54
2022/02/16 05:15:34;;;;;;;10.65;6.70;;;9.30;99.90;;;;;;5019333;28;20078;-38
2022/02/16 05:18:00;;;;;;;13.10;6.60;;;9.30;99.90;;;;;;5031935;28;20021;-38
2022/02/16 05:20:26;;;;;;;10.02;6.68;;;9.30;99.90;;;;;;5028603;28;20021;-40
2022/02/16 05:22:52;;;;;;;10.73;6.75;;;9.20;99.90;;;;;;5029985;28;20151;-41
2022/02/16 05:25:17;;;;;;;7.45;5.82;;;9.30;99.90;;;;;;5048129;28;20128;-39
2022/02/16 05:27:43;;;;;;;7.80;5.60;;;9.30;99.90;;;;;;5027330;28;20026;-41
2022/02/16 05:30:10;;;;;;;9.65;5.80;;;9.30;99.90;;;;;;5024342;28;20033;-40
2022/02/16 05:32:37;;;;;;;8.52;5.07;;;9.20;99.90;;;;;;5015778;28;20038;-40
2022/02/16 05:35:03;;;;;;;8.70;5.37;;;9.40;99.90;;;;;;5031242;28;20037;-40
2022/02/16 05:37:28;;;;;;;6.57;5.07;;;9.40;99.90;;;;;;5015618;28;20363;-39
2022/02/16 05:39:54;;;;;;;8.02;5.63;;;9.40;99.90;;;;;;5015429;28;20025;-40
2022/02/16 05:42:20;;;;;;;6.22;4.50;;;9.40;99.90;;;;;;5020033;28;20052;-39
2022/02/16 05:44:45;;;;;;;7.35;5.13;;;9.40;99.90;;;;;;5030607;28;20022;-39
2022/02/16 05:47:11;;;;;;;6.25;4.65;;;9.40;99.90;;;;;;5032828;28;20572;-35
2022/02/16 05:49:36;;;;;;;5.68;4.38;;;9.40;99.90;;;;;;5034274;28;20025;-38
2022/02/16 05:52:03;;;;;;;5.72;4.45;;;9.40;99.90;;;;;;5030070;28;20072;-37
2022/02/16 05:54:28;;;;;;;7.78;5.38;;;9.40;99.90;;;;;;5033099;28;20389;-39
2022/02/16 05:56:54;;;;;;;5.93;4.72;;;9.40;99.90;;;;;;5033700;28;20096;-38
2022/02/16 05:59:19;;;;;;;6.78;5.05;;;9.40;99.90;;;;;;5024544;28;20041;-40
2022/02/16 06:01:45;;;;;;;7.35;5.32;;;9.40;99.90;;;;;;5024442;28;20036;-39
2022/02/16 06:04:15;;;;;;;7.75;5.53;;;9.50;99.90;;;;;;5032506;28;20026;-37
2022/02/16 06:06:41;;;;;;;6.68;5.07;;;9.50;99.90;;;;;;5033552;28;20090;-38
2022/02/16 06:09:07;;;;;;;9.00;4.95;;;9.50;99.90;;;;;;5034303;28;20435;-39
2022/02/16 06:11:32;;;;;;;8.25;5.25;;;9.60;99.90;;;;;;5025857;28;20148;-37
2022/02/16 06:13:58;;;;;;;6.05;4.95;;;9.60;99.90;;;;;;5027087;28;20481;-38
2022/02/16 06:16:23;;;;;;;6.50;4.93;;;9.60;99.90;;;;;;5024370;28;20029;-37
2022/02/16 06:18:49;;;;;;;6.97;5.57;;;9.60;99.90;;;;;;5015876;28;20558;-54
2022/02/16 06:21:15;;;;;;;8.05;6.97;;;9.60;99.90;;;;;;5031763;28;20029;-39
2022/02/16 06:23:41;;;;;;;7.25;5.18;;;9.60;99.90;;;;;;5028460;28;21176;-38
2022/02/16 06:26:07;;;;;;;9.27;5.38;;;9.60;99.90;;;;;;5028024;28;20030;-39
2022/02/16 06:28:32;;;;;;;7.55;5.47;;;9.60;99.90;;;;;;5021859;28;20075;-38
2022/02/16 06:30:58;;;;;;;6.00;4.90;;;9.60;99.90;;;;;;5033203;28;20021;-39
2022/02/16 06:33:24;;;;;;;7.20;5.35;;;9.60;99.90;;;;;;5024589;28;20080;-38
2022/02/16 06:35:49;;;;;;;6.10;4.88;;;9.70;99.90;;;;;;5033770;28;20026;-38
2022/02/16 06:38:15;;;;;;;8.15;5.00;;;9.70;99.90;;;;;;5034009;28;20433;-39
2022/02/16 06:40:43;;;;;;;5.47;4.35;;;9.70;99.90;;;;;;5034210;28;20537;-41
2022/02/16 06:43:09;;;;;;;6.72;4.45;;;9.80;99.90;;;;;;5031956;28;20490;-39
2022/02/16 06:45:37;;;;;;;8.25;4.55;;;9.80;99.90;;;;;;5034236;28;20076;-39
2022/02/16 06:48:03;;;;;;;10.40;4.28;;;9.80;99.90;;;;;;5032743;28;20080;-39
2022/02/16 06:50:29;;;;;;;10.02;4.40;;;9.80;99.90;;;;;;5019583;28;20049;-39
2022/02/16 06:52:54;;;;;;;5.45;4.13;;;9.80;99.90;;;;;;5025147;28;20087;-39
2022/02/16 06:55:20;;;;;;;5.72;4.22;;;9.90;99.90;;;;;;5029746;28;20436;-39
2022/02/16 06:57:45;;;;;;;5.10;3.38;;;9.90;99.90;;;;;;5031787;28;20033;-39
2022/02/16 07:00:11;;;;;;;5.72;4.00;;;9.90;99.90;;;;;;5033590;28;20149;-38
2022/02/16 07:02:47;;;;;;;6.95;4.00;;;9.90;99.90;;;;;;5014636;28;20025;-39
2022/02/16 07:05:14;;;;;;;7.35;3.95;;;9.90;99.90;;;;;;5023212;28;20034;-39
2022/02/16 07:07:40;;;;;;;5.93;3.10;;;10.00;99.90;;;;;;5029677;28;20074;-39
2022/02/16 07:10:07;;;;;;;5.28;3.53;;;10.00;99.90;;;;;;5030178;28;20029;-39
2022/02/16 07:12:35;;;;;;;3.88;2.95;;;10.00;99.90;;;;;;5022159;28;20041;-39
2022/02/16 07:15:01;;;;;;;3.28;2.67;;;10.00;99.90;;;;;;5033062;28;20021;-39
2022/02/16 07:17:26;;;;;;;3.22;2.58;;;10.10;99.90;;;;;;5027247;28;20025;-48
2022/02/16 07:19:52;;;;;;;3.08;2.78;;;10.10;99.90;;;;;;5028425;28;20022;-37
2022/02/16 07:22:17;;;;;;;2.78;2.33;;;10.10;99.90;;;;;;5030346;28;20049;-39
2022/02/16 07:24:43;;;;;;;3.65;2.45;;;10.10;99.90;;;;;;5033244;28;20052;-38
2022/02/16 07:27:09;;;;;;;3.10;2.35;;;10.10;99.90;;;;;;5033365;28;20021;-39
2022/02/16 07:29:34;;;;;;;3.22;2.45;;;10.10;99.90;;;;;;5018946;28;20045;-58
2022/02/16 07:32:00;;;;;;;2.72;2.20;;;10.10;99.90;;;;;;5018056;28;20037;-39
2022/02/16 07:34:27;;;;;;;2.95;2.28;;;10.10;99.90;;;;;;5022270;28;20038;-38
2022/02/16 07:36:53;;;;;;;5.82;2.75;;;10.10;99.90;;;;;;5013683;28;20022;-45
2022/02/16 07:39:19;;;;;;;3.28;2.22;;;10.20;99.90;;;;;;5017813;28;20022;-38
2022/02/16 07:41:44;;;;;;;4.13;2.35;;;10.20;99.90;;;;;;5020064;28;20078;-39
2022/02/16 07:44:10;;;;;;;2.30;2.10;;;10.20;99.90;;;;;;5024402;28;20030;-38
2022/02/16 07:46:36;;;;;;;3.00;2.30;;;10.20;99.90;;;;;;5020913;28;20034;-39
2022/02/16 07:49:02;;;;;;;4.05;2.75;;;10.20;99.90;;;;;;5025914;28;20030;-38
2022/02/16 07:51:27;;;;;;;2.60;2.33;;;10.20;99.90;;;;;;5028174;28;20024;-39
2022/02/16 07:53:54;;;;;;;4.55;2.40;;;10.20;99.90;;;;;;5032163;28;20429;-37
2022/02/16 07:56:20;;;;;;;2.63;2.25;;;10.30;99.90;;;;;;5033199;28;20076;-39
2022/02/16 07:58:46;;;;;;;3.88;2.28;;;10.30;99.90;;;;;;5027322;28;20433;-39
2022/02/16 08:01:11;;;;;;;2.60;2.30;;;10.40;99.90;;;;;;5016148;28;20084;-39
2022/02/16 08:03:37;;;;;;;2.50;1.90;;;10.40;99.90;;;;;;5013332;28;20076;-40
2022/02/16 08:06:03;;;;;;;3.90;2.30;;;10.40;99.90;;;;;;5023304;28;20075;-40
2022/02/16 08:08:31;;;;;;;5.65;2.85;;;10.40;99.90;;;;;;5023023;28;20027;-38
2022/02/16 08:10:57;;;;;;;2.90;2.23;;;10.40;99.90;;;;;;5032779;28;20148;-39
2022/02/16 08:13:23;;;;;;;6.80;3.08;;;10.50;99.90;;;;;;5027526;28;20351;-60
2022/02/16 08:15:49;;;;;;;2.97;2.58;;;10.50;99.90;;;;;;5024775;28;20094;-39
2022/02/16 08:18:14;;;;;;;9.02;2.97;;;10.50;99.90;;;;;;5032507;28;20072;-39
2022/02/16 08:20:42;;;;;;;13.15;4.13;;;10.60;99.90;;;;;;5031320;28;20474;-39
2022/02/16 08:23:09;;;;;;;4.20;2.85;;;10.60;99.90;;;;;;5030006;28;20080;-37
2022/02/16 08:25:36;;;;;;;10.52;4.40;;;10.60;99.90;;;;;;5027661;28;20113;-38
2022/02/16 08:28:01;;;;;;;10.77;4.03;;;10.70;99.90;;;;;;5029107;28;20478;-36
2022/02/16 08:30:27;;;;;;;10.77;4.25;;;10.70;99.90;;;;;;5034793;28;20018;-37
2022/02/16 08:32:53;;;;;;;13.90;4.78;;;10.80;99.90;;;;;;5033579;28;20079;-39
2022/02/16 08:35:18;;;;;;;8.77;4.53;;;10.80;99.90;;;;;;5021785;28;20087;-38
2022/02/16 08:37:44;;;;;;;12.05;4.30;;;10.90;99.90;;;;;;5036199;28;20031;-37
2022/02/16 08:40:11;;;;;;;19.65;5.40;;;10.90;99.90;;;;;;5030565;28;20026;-39
2022/02/16 08:42:37;;;;;;;16.70;4.57;;;11.00;99.90;;;;;;5033154;28;20507;-39
2022/02/16 08:45:03;;;;;;;8.27;3.33;;;11.00;99.90;;;;;;5031520;28;20044;-41
2022/02/16 08:47:29;;;;;;;17.38;4.15;;;11.10;99.90;;;;;;5035536;28;20037;-39
2022/02/16 08:49:54;;;;;;;19.00;4.18;;;11.10;99.90;;;;;;5031799;28;20029;-39
2022/02/16 08:52:20;;;;;;;10.20;3.67;;;11.20;99.90;;;;;;5031952;28;20057;-38
2022/02/16 08:54:46;;;;;;;7.90;2.85;;;11.30;99.90;;;;;;5035146;28;20421;-39
2022/02/16 08:57:12;;;;;;;12.40;3.97;;;11.30;99.90;;;;;;5032990;28;20486;-40
2022/02/16 08:59:37;;;;;;;11.65;2.97;;;11.40;99.90;;;;;;5035001;28;20508;-39
2022/02/16 09:02:04;;;;;;;9.20;3.10;;;11.40;99.90;;;;;;5031675;28;20022;-38
2022/02/16 09:04:30;;;;;;;20.50;3.78;;;11.50;99.90;;;;;;5018445;28;20030;-38
2022/02/16 09:09:43;;;;;;;20.08;2.83;;;11.60;99.90;;;;;;5019566;28;20040;-39
2022/02/16 09:12:09;;;;;;;20.33;3.72;;;11.70;99.90;;;;;;5034764;28;20026;-39
2022/02/16 09:14:35;;;;;;;15.07;2.53;;;11.70;99.90;;;;;;5028580;28;20025;-39
2022/02/16 09:17:02;;;;;;;13.23;3.63;;;11.80;99.90;;;;;;5020107;28;20421;-57
2022/02/16 09:19:28;;;;;;;19.77;2.77;;;11.80;99.90;;;;;;5028309;28;20031;-40
2022/02/16 09:21:53;;;;;;;12.98;2.50;;;11.80;99.90;;;;;;5019688;28;20636;-39
2022/02/16 09:24:20;;;;;;;16.40;2.45;;;11.90;99.90;;;;;;5019760;28;20034;-39
2022/02/16 09:26:50;;;;;;;15.52;2.42;;;12.00;99.90;;;;;;5022437;28;20117;-39
2022/02/16 09:29:17;;;;;;;14.93;3.00;;;12.00;99.90;;;;;;5015891;28;20088;-39
2022/02/16 09:31:43;;;;;;;13.27;2.95;;;12.10;99.90;;;;;;5015505;28;20057;-40
2022/02/16 09:34:09;;;;;;;19.88;4.28;;;12.20;99.90;;;;;;5024185;28;20079;-40
2022/02/16 09:36:35;;;;;;;14.02;3.05;;;12.30;99.90;;;;;;5022902;28;20033;-39
2022/02/16 09:39:02;;;;;;;15.13;2.88;;;12.30;99.90;;;;;;5030039;28;20473;-39
2022/02/16 09:41:28;;;;;;;14.20;2.08;;;12.40;99.90;;;;;;5020311;28;20034;-37
2022/02/16 09:43:56;;;;;;;18.50;1.92;;;12.50;99.90;;;;;;5033776;28;20041;-39
2022/02/16 09:46:22;;;;;;;;;;;12.70;99.90;;;;;;5026247;28;20486;-40
2022/02/16 09:48:49;;;;;;;17.40;2.55;;;12.80;99.90;;;;;;5026897;28;20019;-43
2022/02/16 09:51:14;;;;;;;17.23;2.33;;;12.80;99.90;;;;;;5024314;28;20033;-47
2022/02/16 09:53:40;;;;;;;19.45;2.15;;;12.80;99.90;;;;;;5032882;28;20026;-39
2022/02/16 09:56:06;;;;;;;15.75;2.22;;;12.90;99.90;;;;;;5034946;28;20044;-40
2022/02/16 09:58:34;;;;;;;10.75;1.83;;;13.00;99.90;;;;;;5034960;28;20022;-39
2022/02/16 10:01:12;;;;;;;14.82;2.33;;;13.00;99.90;;;;;;5030981;28;20057;-39
2022/02/16 10:03:38;;;;;;;;;;;13.00;99.90;;;;;;5035218;28;20026;-40
2022/02/16 10:06:04;;;;;;;10.27;2.03;;;13.10;99.90;;;;;;5014249;28;19909;-39
2022/02/16 10:08:47;;;;;;;11.48;2.40;;;13.00;99.90;;;;;;5014892;28;20056;-46
2022/02/16 10:11:15;;;;;;;9.68;2.17;;;13.00;99.90;;;;;;5026565;28;20060;-39
2022/02/16 10:13:41;;;;;;;23.92;2.28;;;13.10;99.90;;;;;;5017464;28;20569;-38
2022/02/16 10:16:07;;;;;;;17.20;2.00;;;13.20;99.90;;;;;;5015801;28;20026;-36
2022/02/16 10:18:33;;;;;;;5.38;1.70;;;13.30;99.90;;;;;;5027442;28;20044;-38
2022/02/16 10:21:12;;;;;;;6.70;1.63;;;13.30;99.90;;;;;;5024505;28;20026;-39
2022/02/16 10:23:44;;;;;;;13.77;2.30;;;13.40;99.90;;;;;;5022044;28;20188;-42
2022/02/16 10:26:10;;;;;;;15.95;2.50;;;13.30;99.90;;;;;;5023999;28;20028;-39
2022/02/16 10:28:44;;;;;;;14.23;1.90;;;13.30;99.90;;;;;;5034241;28;20079;-40
2022/02/16 10:31:11;;;;;;;15.75;2.20;;;13.20;99.90;;;;;;5031547;28;20037;-39
2022/02/16 10:36:31;;;;;;;14.30;2.40;;;13.00;99.90;;;;;;5034063;28;20036;-39
2022/02/16 10:38:57;;;;;;;9.93;2.42;;;12.90;99.90;;;;;;5027306;28;20470;-39
2022/02/16 10:41:31;;;;;;;21.73;2.58;;;13.00;99.90;;;;;;5021776;28;20032;-39
2022/02/16 10:43:59;;;;;;;16.67;2.97;;;13.00;99.90;;;;;;5032007;28;20021;-39
2022/02/16 10:46:29;;;;;;;;;;;13.00;99.90;;;;;;5032763;28;20048;-39
2022/02/16 10:49:14;;;;;;;16.98;2.45;;;12.90;99.90;;;;;;5025425;28;19920;-38
2022/02/16 10:51:41;;;;;;;14.98;2.83;;;12.80;99.90;;;;;;5016190;28;20482;-37
2022/02/16 10:54:19;;;;;;;14.03;2.30;;;12.80;99.90;;;;;;5015749;28;20022;-37
2022/02/16 10:56:48;;;;;;;20.20;3.47;;;12.80;99.90;;;;;;5019415;28;20017;-40
2022/02/16 10:59:14;;;;;;;14.98;3.08;;;12.70;99.90;;;;;;5031952;28;20034;-42
2022/02/16 11:01:41;;;;;;;9.35;2.00;;;12.70;99.90;;;;;;5030143;28;20022;-40
2022/02/16 11:04:11;;;;;;;15.20;2.58;;;12.70;99.90;;;;;;5016131;28;20124;-42
2022/02/16 11:06:42;;;;;;;24.67;3.03;;;12.70;99.90;;;;;;5013911;28;20490;-42
2022/02/16 11:09:15;;;;;;;19.00;4.28;;;12.70;99.90;;;;;;5021567;28;20025;-39
2022/02/16 11:11:41;;;;;;;16.45;3.13;;;12.60;99.90;;;;;;5028308;28;20506;-40
2022/02/16 11:14:09;;;;;;;16.83;2.78;;;12.60;99.90;;;;;;5030913;28;20049;-45
2022/02/16 11:16:35;;;;;;;26.17;3.60;;;12.60;99.90;;;;;;5046683;28;20044;-54
2022/02/16 11:19:18;;;;;;;11.52;2.22;;;12.60;99.90;;;;;;5033740;28;20513;-41
2022/02/16 11:22:08;;;;;;;17.73;2.55;;;12.50;99.90;;;;;;5018531;28;20026;-41
2022/02/16 11:24:42;;;;;;;20.60;2.92;;;12.40;99.90;;;;;;5027717;28;20044;-40
2022/02/16 11:27:29;;;;;;;18.80;3.55;;;12.50;99.90;;;;;;5029232;28;20378;-42
2022/02/16 11:29:58;;;;;;;15.75;2.45;;;12.60;99.90;;;;;;5027088;28;20532;-40
2022/02/16 11:32:36;;;;;;;19.40;2.85;;;12.50;99.90;;;;;;5030397;28;20355;-40
2022/02/16 11:35:17;;;;;;;24.20;2.95;;;12.60;99.90;;;;;;5022092;28;20449;-38
2022/02/16 11:38:02;;;;;;;16.38;2.55;;;12.50;99.90;;;;;;5031903;28;20028;-38
2022/02/16 11:40:38;;;;;;;19.25;3.28;;;12.60;99.90;;;;;;5033186;28;20026;-40
2022/02/16 11:43:05;;;;;;;15.73;3.58;;;12.70;99.90;;;;;;5032470;28;20056;-39
2022/02/16 11:45:45;;;;;;;13.18;2.33;;;12.70;99.90;;;;;;5032704;28;20037;-40
2022/02/16 11:48:13;;;;;;;27.52;3.20;;;12.70;99.90;;;;;;5023934;28;20172;-39
2022/02/16 11:50:40;;;;;;;15.52;2.88;;;12.70;99.90;;;;;;5015549;28;20042;-39
2022/02/16 11:53:11;;;;;;;18.02;2.85;;;12.70;99.90;;;;;;5013421;28;20024;-43
2022/02/16 11:55:44;;;;;;;25.50;4.10;;;12.70;99.90;;;;;;5017946;28;20022;-39
2022/02/16 11:58:22;;;;;;;14.07;2.70;;;12.60;99.90;;;;;;5013139;28;20506;-40
2022/02/16 12:03:50;;;;;;;19.88;2.88;;;12.60;99.90;;;;;;5026489;28;20119;-40
2022/02/16 12:06:19;;;;;;;18.63;2.97;;;12.50;99.90;;;;;;5031976;28;20030;-39
2022/02/16 12:08:48;;;;;;;15.35;2.80;;;12.50;99.90;;;;;;5025674;28;20057;-39
2022/02/16 12:11:15;;;;;;;11.93;2.85;;;12.50;99.90;;;;;;5013729;28;20057;-39
2022/02/16 12:13:44;;;;;;;26.70;4.07;;;12.50;99.90;;;;;;5025513;28;20026;-36
2022/02/16 12:16:13;;;;;;;27.42;3.15;;;12.60;99.90;;;;;;5030999;28;20021;-37
2022/02/16 12:18:40;;;;;;;20.65;2.15;;;12.70;99.90;;;;;;5031973;28;20052;-39
2022/02/16 12:21:07;;;;;;;15.45;2.70;;;12.70;99.90;;;;;;5032202;28;20470;-38
2022/02/16 12:23:41;;;;;;;16.48;2.33;;;12.70;99.90;;;;;;5013476;28;20050;-43
2022/02/16 12:26:17;;;;;;;14.60;2.17;;;12.60;99.90;;;;;;5013393;28;20113;-40
2022/02/16 12:28:53;;;;;;;14.10;2.63;;;12.70;99.90;;;;;;5021226;28;20033;-40
2022/02/16 12:31:19;;;;;;;17.73;2.78;;;12.60;99.90;;;;;;5032511;28;20478;-39
2022/02/16 12:33:57;;;;;;;16.70;2.60;;;12.60;99.90;;;;;;5014153;28;20026;-40
2022/02/16 12:36:23;;;;;;;;;;;12.60;99.90;;;;;;5027455;28;20406;-41
2022/02/16 12:38:49;;;;;;;12.73;2.75;;;12.60;99.90;;;;;;5028480;28;19921;-58
2022/02/16 12:41:19;;;;;;;19.05;3.70;;;12.60;99.90;;;;;;5022631;28;20045;-39
2022/02/16 12:44:00;;;;;;;22.17;4.00;;;12.60;99.90;;;;;;5026688;28;20036;-39
2022/02/16 12:46:29;;;;;;;20.30;2.92;;;12.60;99.90;;;;;;5012551;28;20506;-40
2022/02/16 12:48:56;;;;;;;19.98;3.47;;;12.70;99.90;;;;;;5012879;28;20029;-38
2022/02/16 12:51:27;;;;;;;22.98;4.45;;;12.70;99.90;;;;;;5016896;28;20405;-39
2022/02/16 12:53:54;;;;;;;23.95;2.92;;;12.80;99.90;;;;;;5026383;28;20097;-40
2022/02/16 12:56:20;;;;;;;17.30;3.63;;;12.80;99.90;;;;;;5020044;28;20938;-39